createdAt,value
2018-06-16T00:01:36.890Z,99.90
2018-06-16T00:04:05.272Z,99.90
2018-06-16T00:06:33.546Z,99.90
2018-06-16T00:09:01.834Z,99.90
2018-06-16T00:11:30.118Z,99.90
2018-06-16T00:13:58.414Z,99.90
2018-06-16T00:18:54.692Z,99.90
2018-06-16T00:21:22.980Z,99.90
2018-06-16T00:23:51.264Z,99.90
2018-06-16T00:26:19.535Z,99.90
2018-06-16T00:28:47.815Z,99.90
2018-06-16T00:31:16.120Z,99.90
2018-06-16T00:33:44.419Z,99.90
2018-06-16T00:36:12.788Z,99.90
2018-06-16T00:38:41.079Z,99.90
2018-06-16T00:41:09.384Z,99.90
2018-06-16T00:43:37.639Z,99.90
2018-06-16T00:46:05.923Z,99.90
2018-06-16T00:48:34.317Z,99.90
2018-06-16T00:51:02.643Z,99.90
2018-06-16T00:55:58.963Z,99.90
2018-06-16T00:58:27.241Z,99.90
2018-06-16T01:00:55.531Z,99.90
2018-06-16T01:03:23.919Z,99.90
2018-06-16T01:05:52.209Z,99.90
2018-06-16T01:08:20.544Z,99.90
2018-06-16T01:10:48.831Z,99.90
2018-06-16T01:13:17.112Z,99.90
2018-06-16T01:15:45.498Z,99.90
2018-06-16T01:18:13.780Z,99.90
2018-06-16T01:20:42.048Z,99.90
2018-06-16T01:23:10.318Z,99.90
2018-06-16T01:28:13.244Z,99.90
2018-06-16T01:30:41.546Z,99.90
2018-06-16T01:33:09.800Z,99.90
2018-06-16T01:35:38.086Z,99.90
2018-06-16T01:38:06.398Z,99.90
2018-06-16T01:40:34.739Z,99.90
2018-06-16T01:43:03.008Z,99.90
2018-06-16T01:45:31.294Z,99.90
2018-06-16T01:47:59.592Z,99.90
2018-06-16T01:50:27.914Z,99.90
2018-06-16T01:52:56.218Z,99.90
2018-06-16T01:55:24.504Z,99.90
2018-06-16T01:57:52.806Z,99.90
2018-06-16T02:00:21.126Z,99.90
2018-06-16T02:02:49.414Z,99.90
2018-06-16T02:05:17.758Z,99.90
2018-06-16T02:07:46.027Z,99.90
2018-06-16T02:10:14.307Z,99.90
2018-06-16T02:12:42.646Z,99.90
2018-06-16T02:15:10.924Z,99.90
2018-06-16T02:17:39.279Z,99.90
2018-06-16T02:20:07.577Z,99.90
2018-06-16T02:22:35.854Z,99.90
2018-06-16T02:25:04.192Z,99.90
2018-06-16T02:27:32.470Z,99.90
2018-06-16T02:30:00.787Z,99.90
2018-06-16T02:32:29.071Z,99.90
2018-06-16T02:37:25.375Z,99.90
2018-06-16T02:39:53.675Z,99.90
2018-06-16T02:42:21.986Z,99.90
2018-06-16T02:44:50.271Z,99.90
2018-06-16T02:47:18.545Z,99.90
2018-06-16T02:49:46.922Z,99.90
2018-06-16T02:52:15.201Z,99.90
2018-06-16T02:54:43.534Z,99.90
2018-06-16T02:57:11.865Z,99.90
2018-06-16T02:59:40.153Z,99.90
2018-06-16T03:02:08.445Z,99.90
2018-06-16T03:04:36.732Z,99.90
2018-06-16T03:07:05.039Z,99.90
2018-06-16T03:09:33.370Z,99.90
2018-06-16T03:12:01.651Z,99.90
2018-06-16T03:14:29.914Z,99.90
2018-06-16T03:16:58.239Z,99.90
2018-06-16T03:19:26.540Z,99.90
2018-06-16T03:24:22.825Z,99.90
2018-06-16T03:26:51.119Z,99.90
2018-06-16T03:29:19.397Z,99.90
2018-06-16T03:31:47.727Z,99.90
2018-06-16T03:34:16.013Z,99.90
2018-06-16T03:36:44.315Z,99.90
2018-06-16T03:39:12.623Z,99.90
2018-06-16T03:41:40.909Z,99.90
2018-06-16T03:44:09.215Z,99.90
2018-06-16T03:46:37.479Z,99.90
2018-06-16T03:49:06.119Z,99.90
2018-06-16T03:51:34.387Z,99.90
2018-06-16T03:54:02.672Z,99.90
2018-06-16T03:56:30.979Z,99.90
2018-06-16T03:58:59.258Z,99.90
2018-06-16T04:01:27.605Z,99.90
2018-06-16T04:03:55.991Z,99.90
2018-06-16T04:06:24.293Z,99.90
2018-06-16T04:08:52.582Z,99.90
2018-06-16T04:11:20.887Z,99.90
2018-06-16T04:13:49.199Z,99.90
2018-06-16T04:16:17.487Z,99.90
2018-06-16T04:18:45.766Z,99.90
2018-06-16T04:23:42.191Z,99.90
2018-06-16T04:26:10.476Z,99.90
2018-06-16T04:28:38.779Z,99.90
2018-06-16T04:31:07.042Z,99.90
2018-06-16T04:33:35.331Z,99.90
2018-06-16T04:36:03.632Z,99.90
2018-06-16T04:38:31.931Z,99.90
2018-06-16T04:41:00.229Z,99.90
2018-06-16T04:43:28.525Z,99.90
2018-06-16T04:45:56.885Z,99.90
2018-06-16T04:48:25.265Z,99.90
2018-06-16T04:50:53.609Z,99.90
2018-06-16T04:53:21.878Z,99.90
2018-06-16T04:58:18.268Z,99.90
2018-06-16T05:00:46.539Z,99.90
2018-06-16T05:03:14.875Z,99.90
2018-06-16T05:05:43.159Z,99.90
2018-06-16T05:08:11.518Z,99.90
2018-06-16T05:10:39.817Z,99.90
2018-06-16T05:13:08.112Z,99.90
2018-06-16T05:15:36.415Z,99.90
2018-06-16T05:18:04.778Z,99.90
2018-06-16T05:20:33.114Z,99.90
2018-06-16T05:23:01.401Z,99.90
2018-06-16T05:25:29.675Z,99.90
2018-06-16T05:27:58.011Z,99.90
2018-06-16T05:30:26.284Z,99.90
2018-06-16T05:32:54.639Z,99.90
2018-06-16T05:35:23.053Z,99.90
2018-06-16T05:37:51.363Z,99.90
2018-06-16T05:40:19.671Z,99.90
2018-06-16T05:42:48.071Z,99.90
2018-06-16T05:45:16.367Z,99.90
2018-06-16T05:47:44.747Z,99.90
2018-06-16T05:50:13.013Z,99.90
2018-06-16T05:52:41.351Z,99.90
2018-06-16T05:55:09.661Z,99.90
2018-06-16T06:00:06.330Z,99.90
2018-06-16T06:02:34.602Z,99.90
2018-06-16T06:05:02.922Z,99.90
2018-06-16T06:07:31.197Z,99.90
2018-06-16T06:09:59.455Z,99.90
2018-06-16T06:12:27.739Z,99.90
2018-06-16T06:14:56.040Z,99.90
2018-06-16T06:17:24.371Z,99.90
2018-06-16T06:19:52.674Z,99.90
2018-06-16T06:27:17.063Z,99.90
2018-06-16T06:29:45.459Z,99.90
2018-06-16T06:32:13.761Z,99.90
2018-06-16T06:34:42.067Z,99.90
2018-06-16T06:37:10.325Z,99.90
2018-06-16T06:39:38.620Z,99.90
2018-06-16T06:42:06.977Z,99.90
2018-06-16T06:44:35.279Z,99.90
2018-06-16T06:47:03.618Z,99.90
2018-06-16T06:49:31.914Z,99.90
2018-06-16T06:54:28.332Z,99.90
2018-06-16T06:56:56.736Z,99.90
2018-06-16T06:59:25.061Z,99.90
2018-06-16T07:01:53.327Z,99.90
2018-06-16T07:06:49.654Z,99.90
2018-06-16T07:09:17.920Z,99.90
2018-06-16T07:11:46.243Z,99.90
2018-06-16T07:14:14.491Z,99.90
2018-06-16T07:16:42.784Z,99.90
2018-06-16T07:19:11.094Z,99.90
2018-06-16T07:21:39.384Z,99.90
2018-06-16T07:24:07.684Z,99.90
2018-06-16T07:26:35.960Z,99.90
2018-06-16T07:29:04.290Z,99.90
2018-06-16T07:31:32.604Z,99.90
2018-06-16T07:34:00.880Z,99.90
2018-06-16T07:36:29.194Z,99.90
2018-06-16T07:38:57.522Z,99.90
2018-06-16T07:41:25.816Z,99.90
2018-06-16T07:43:54.071Z,99.90
2018-06-16T07:46:22.381Z,99.90
2018-06-16T07:48:50.678Z,99.90
2018-06-16T07:51:18.968Z,99.90
2018-06-16T07:53:47.244Z,99.90
2018-06-16T07:56:15.634Z,99.90
2018-06-16T07:58:43.996Z,99.90
2018-06-16T08:01:12.284Z,99.90
2018-06-16T08:03:40.621Z,99.90
2018-06-16T08:06:08.889Z,99.90
2018-06-16T08:08:37.217Z,99.90
2018-06-16T08:11:05.515Z,99.90
2018-06-16T08:13:33.830Z,99.90
2018-06-16T08:16:03.865Z,99.90
2018-06-16T08:18:32.155Z,99.90
2018-06-16T08:21:00.452Z,99.90
2018-06-16T08:28:24.811Z,99.90
2018-06-16T08:30:53.116Z,99.90
2018-06-16T08:33:21.537Z,99.90
2018-06-16T08:35:49.807Z,99.90
2018-06-16T08:38:18.173Z,99.40
2018-06-16T08:40:46.481Z,99.70
2018-06-16T08:43:14.810Z,99.70
2018-06-16T08:45:43.085Z,99.90
2018-06-16T08:48:11.358Z,99.80
2018-06-16T08:50:39.696Z,97.40
2018-06-16T08:53:07.987Z,97.40
2018-06-16T08:55:36.372Z,97.70
2018-06-16T08:58:04.598Z,95.40
2018-06-16T09:00:32.918Z,95.70
2018-06-16T09:05:29.264Z,96.20
2018-06-16T09:07:57.559Z,96.10
2018-06-16T09:10:25.888Z,93.10
2018-06-16T09:15:22.313Z,90.70
2018-06-16T09:17:50.677Z,90.90
2018-06-16T09:20:18.994Z,93.10
2018-06-16T09:22:47.353Z,93.80
2018-06-16T09:25:15.730Z,93.80
2018-06-16T09:27:44.045Z,95.10
2018-06-16T09:30:12.344Z,95.40
2018-06-16T09:32:40.670Z,95.00
2018-06-16T09:35:09.040Z,94.70
2018-06-16T09:37:37.393Z,94.00
2018-06-16T09:40:05.855Z,94.50
2018-06-16T09:42:34.235Z,93.50
2018-06-16T09:47:31.376Z,90.90
2018-06-16T09:49:59.655Z,91.00
2018-06-16T09:52:27.959Z,91.00
2018-06-16T09:54:56.258Z,92.50
2018-06-16T09:57:24.562Z,91.30
2018-06-16T09:59:52.927Z,87.40
2018-06-16T10:02:21.248Z,87.40
2018-06-16T10:07:17.622Z,83.90
2018-06-16T10:09:45.923Z,83.50
2018-06-16T10:12:14.254Z,79.60
2018-06-16T10:14:42.517Z,75.80
2018-06-16T10:17:10.819Z,75.30
2018-06-16T10:19:39.121Z,76.50
2018-06-16T10:27:03.531Z,76.00
2018-06-16T10:29:31.819Z,76.70
2018-06-16T10:32:00.173Z,72.20
2018-06-16T10:34:28.565Z,68.60
2018-06-16T10:36:56.897Z,70.20
2018-06-16T10:39:25.193Z,69.20
2018-06-16T10:41:53.485Z,73.50
2018-06-16T10:44:21.877Z,74.50
2018-06-16T10:46:50.211Z,75.70
2018-06-16T10:49:18.527Z,78.90
2018-06-16T10:51:46.855Z,77.30
2018-06-16T10:54:15.231Z,74.60
2018-06-16T10:59:11.603Z,70.50
2018-06-16T11:01:40.004Z,66.80
2018-06-16T11:04:08.294Z,61.50
2018-06-16T11:06:36.572Z,61.40
2018-06-16T11:09:07.213Z,60.30
2018-06-16T11:11:35.500Z,63.70
2018-06-16T11:16:31.867Z,66.70
2018-06-16T11:21:28.259Z,69.90
2018-06-16T11:23:56.571Z,71.60
2018-06-16T11:28:52.961Z,67.50
2018-06-16T11:33:49.252Z,65.70
2018-06-16T11:36:17.678Z,64.30
2018-06-16T11:38:45.981Z,60.50
2018-06-16T11:41:14.290Z,58.10
2018-06-16T11:43:42.609Z,59.20
2018-06-16T11:46:10.904Z,63.20
2018-06-16T11:48:39.234Z,62.80
2018-06-16T11:53:35.633Z,61.80
2018-06-16T11:56:03.951Z,61.10
2018-06-16T11:58:32.249Z,58.80
2018-06-16T12:01:00.522Z,57.00
2018-06-16T12:03:28.833Z,57.30
2018-06-16T12:05:57.117Z,57.20
2018-06-16T12:08:25.399Z,57.90
2018-06-16T12:10:53.727Z,58.40
2018-06-16T12:13:22.247Z,57.40
2018-06-16T12:15:50.710Z,57.90
2018-06-16T12:18:19.001Z,56.60
2018-06-16T12:20:47.288Z,56.40
2018-06-16T12:23:15.594Z,58.10
2018-06-16T12:28:11.980Z,58.30
2018-06-16T12:30:40.259Z,58.00
2018-06-16T12:33:08.671Z,59.60
2018-06-16T12:35:36.949Z,58.30
2018-06-16T12:38:05.325Z,59.30
2018-06-16T12:40:33.631Z,61.80
2018-06-16T12:43:01.935Z,58.10
2018-06-16T12:45:30.253Z,55.80
2018-06-16T12:47:58.574Z,57.00
2018-06-16T12:50:26.878Z,56.60
2018-06-16T12:52:55.235Z,57.20
2018-06-16T12:55:23.541Z,57.90
2018-06-16T12:57:51.877Z,58.30
2018-06-16T13:00:20.168Z,59.10
2018-06-16T13:02:48.483Z,61.40
2018-06-16T13:05:16.806Z,61.00
2018-06-16T13:07:45.109Z,61.30
2018-06-16T13:10:13.518Z,61.00
2018-06-16T13:12:41.809Z,60.30
2018-06-16T13:15:10.134Z,61.90
2018-06-16T13:17:38.452Z,60.00
2018-06-16T13:20:06.736Z,58.30
2018-06-16T13:22:35.017Z,57.70
2018-06-16T13:25:03.333Z,58.90
2018-06-16T13:27:31.640Z,57.80
2018-06-16T13:32:28.070Z,57.40
2018-06-16T13:34:56.365Z,58.50
2018-06-16T13:37:24.652Z,58.70
2018-06-16T13:39:53.941Z,57.70
2018-06-16T13:42:22.251Z,56.80
2018-06-16T13:47:18.799Z,57.60
2018-06-16T13:49:47.189Z,57.40
2018-06-16T13:52:15.502Z,57.60
2018-06-16T13:54:43.801Z,58.10
2018-06-16T13:57:12.075Z,57.00
2018-06-16T13:59:40.339Z,59.70
2018-06-16T14:02:08.642Z,61.40
2018-06-16T14:04:36.918Z,58.30
2018-06-16T14:07:05.274Z,58.30
2018-06-16T14:09:33.549Z,59.30
2018-06-16T14:12:01.841Z,58.20
2018-06-16T14:16:58.193Z,54.90
2018-06-16T14:19:26.513Z,55.80
2018-06-16T14:21:54.814Z,56.30
2018-06-16T14:24:23.098Z,55.20
2018-06-16T14:26:51.473Z,56.40
2018-06-16T14:29:19.852Z,57.40
2018-06-16T14:31:48.160Z,58.70
2018-06-16T14:34:16.430Z,54.40
2018-06-16T14:36:44.766Z,56.90
2018-06-16T14:41:41.212Z,54.20
2018-06-16T14:44:09.548Z,53.80
2018-06-16T14:46:37.980Z,53.00
2018-06-16T14:49:06.285Z,53.50
2018-06-16T14:51:34.588Z,52.50
2018-06-16T14:54:02.845Z,54.40
2018-06-16T14:58:59.209Z,55.90
2018-06-16T15:03:55.502Z,58.20
2018-06-16T15:06:23.799Z,58.40
2018-06-16T15:08:52.091Z,57.40
2018-06-16T15:11:20.384Z,56.00
2018-06-16T15:13:48.683Z,55.90
2018-06-16T15:16:16.965Z,57.10
2018-06-16T15:18:45.264Z,56.00
2018-06-16T15:21:13.588Z,55.80
2018-06-16T15:23:41.906Z,56.80
2018-06-16T15:26:10.186Z,57.70
2018-06-16T15:28:38.475Z,56.80
2018-06-16T15:31:06.747Z,56.30
2018-06-16T15:33:35.103Z,56.90
2018-06-16T15:36:03.500Z,55.80
2018-06-16T15:38:31.770Z,57.00
2018-06-16T15:41:00.166Z,57.00
2018-06-16T15:48:24.505Z,57.20
2018-06-16T15:50:52.790Z,56.90
2018-06-16T15:53:21.128Z,57.40
2018-06-16T15:55:49.436Z,57.20
2018-06-16T15:58:17.849Z,57.40
2018-06-16T16:00:46.138Z,55.80
2018-06-16T16:03:14.454Z,54.20
2018-06-16T16:05:42.793Z,56.00
2018-06-16T16:08:11.061Z,55.50
2018-06-16T16:10:39.394Z,55.40
2018-06-16T16:15:35.689Z,56.70
2018-06-16T16:18:03.963Z,56.80
2018-06-16T16:20:32.276Z,56.50
2018-06-16T16:23:00.592Z,56.70
2018-06-16T16:25:28.907Z,55.90
2018-06-16T16:27:57.216Z,56.30
2018-06-16T16:30:25.525Z,55.50
2018-06-16T16:32:53.819Z,55.00
2018-06-16T16:35:22.184Z,55.00
2018-06-16T16:37:50.499Z,55.50
2018-06-16T16:40:18.827Z,55.80
2018-06-16T16:42:47.088Z,55.60
2018-06-16T16:45:15.384Z,56.60
2018-06-16T16:47:43.682Z,57.40
2018-06-16T16:50:11.999Z,57.10
2018-06-16T16:52:40.309Z,56.10
2018-06-16T16:55:08.591Z,55.60
2018-06-16T16:57:36.881Z,54.70
2018-06-16T17:00:05.783Z,53.60
2018-06-16T17:02:34.077Z,53.30
2018-06-16T17:05:02.490Z,53.10
2018-06-16T17:07:30.797Z,53.50
2018-06-16T17:12:27.120Z,53.00
2018-06-16T17:14:55.435Z,54.60
2018-06-16T17:17:23.744Z,53.60
2018-06-16T17:19:52.141Z,53.90
2018-06-16T17:22:20.465Z,53.60
2018-06-16T17:24:48.800Z,53.10
2018-06-16T17:27:17.103Z,52.30
2018-06-16T17:29:45.487Z,52.10
2018-06-16T17:32:13.883Z,51.80
2018-06-16T17:37:10.205Z,52.10
2018-06-16T17:39:38.495Z,53.40
2018-06-16T17:42:07.085Z,55.30
2018-06-16T17:44:35.389Z,56.90
2018-06-16T17:47:03.713Z,57.90
2018-06-16T17:49:32.025Z,59.70
2018-06-16T17:52:00.415Z,60.50
2018-06-16T17:54:28.697Z,61.10
2018-06-16T17:56:57.027Z,63.90
2018-06-16T17:59:25.331Z,66.60
2018-06-16T18:01:53.625Z,69.20
2018-06-16T18:06:50.383Z,74.00
2018-06-16T18:09:18.735Z,75.70
2018-06-16T18:11:47.036Z,76.60
2018-06-16T18:14:15.357Z,77.00
2018-06-16T18:16:43.653Z,78.10
2018-06-16T18:19:11.952Z,79.00
2018-06-16T18:21:40.219Z,80.90
2018-06-16T18:24:08.520Z,81.80
2018-06-16T18:26:36.835Z,83.30
2018-06-16T18:29:05.235Z,85.50
2018-06-16T18:34:01.577Z,89.60
2018-06-16T18:36:29.881Z,91.10
2018-06-16T18:41:26.276Z,92.80
2018-06-16T18:43:54.625Z,94.00
2018-06-16T18:48:50.983Z,95.90
2018-06-16T18:51:19.295Z,96.50
2018-06-16T18:53:47.621Z,97.20
2018-06-16T18:56:15.970Z,97.40
2018-06-16T18:58:44.227Z,97.60
2018-06-16T19:01:12.529Z,97.40
2018-06-16T19:03:40.867Z,96.80
2018-06-16T19:06:09.191Z,96.90
2018-06-16T19:08:37.482Z,97.00
2018-06-16T19:11:05.801Z,97.30
2018-06-16T19:13:34.071Z,98.00
2018-06-16T19:18:30.524Z,98.30
2018-06-16T19:20:58.835Z,98.60
2018-06-16T19:23:27.145Z,98.90
2018-06-16T19:25:55.433Z,99.50
2018-06-16T19:28:23.837Z,99.90
2018-06-16T19:30:52.160Z,99.90
2018-06-16T19:33:20.511Z,99.90
2018-06-16T19:35:48.844Z,99.90
2018-06-16T19:38:17.198Z,99.90
2018-06-16T19:40:45.550Z,99.90
2018-06-16T19:43:13.962Z,99.90
2018-06-16T19:45:42.345Z,99.90
2018-06-16T19:48:10.680Z,99.90
2018-06-16T19:53:07.171Z,99.90
2018-06-16T19:55:35.480Z,99.90
2018-06-16T19:58:03.810Z,99.90
2018-06-16T20:03:00.272Z,99.90
2018-06-16T20:07:56.628Z,99.90
2018-06-16T20:10:24.927Z,99.90
2018-06-16T20:12:53.214Z,99.90
2018-06-16T20:15:21.510Z,99.90
2018-06-16T20:17:49.832Z,99.90
2018-06-16T20:20:18.120Z,99.90
2018-06-16T20:22:46.514Z,99.90
2018-06-16T20:25:14.830Z,99.90
2018-06-16T20:27:43.196Z,99.90
2018-06-16T20:30:11.524Z,99.90
2018-06-16T20:32:39.841Z,99.90
2018-06-16T20:35:08.469Z,99.90
2018-06-16T20:37:36.812Z,99.90
2018-06-16T20:40:05.208Z,99.90
2018-06-16T20:42:33.529Z,99.90
2018-06-16T20:45:01.820Z,99.90
2018-06-16T20:47:30.117Z,99.90
2018-06-16T20:49:58.451Z,99.90
2018-06-16T20:54:54.790Z,99.90
2018-06-16T20:57:23.087Z,99.90
2018-06-16T21:02:19.381Z,99.90
2018-06-16T21:04:47.708Z,99.90
2018-06-16T21:07:16.052Z,99.90
2018-06-16T21:09:44.501Z,99.90
2018-06-16T21:12:12.770Z,99.90
2018-06-16T21:14:41.059Z,99.90
2018-06-16T21:17:09.350Z,99.90
2018-06-16T21:22:06.026Z,99.90
2018-06-16T21:24:34.373Z,99.90
2018-06-16T21:27:02.701Z,99.90
2018-06-16T21:29:31.006Z,99.90
2018-06-16T21:31:59.339Z,99.90
2018-06-16T21:34:27.617Z,99.90
2018-06-16T21:36:55.934Z,99.90
2018-06-16T21:39:24.236Z,99.90
2018-06-16T21:41:52.544Z,99.90
2018-06-16T21:44:20.867Z,99.90
2018-06-16T21:46:49.189Z,99.90
2018-06-16T21:49:17.485Z,99.90
2018-06-16T21:51:45.766Z,99.90
2018-06-16T21:54:14.097Z,99.90
2018-06-16T21:59:10.473Z,99.90
2018-06-16T22:01:38.800Z,99.90
2018-06-16T22:04:07.348Z,99.90
2018-06-16T22:06:35.656Z,99.90
2018-06-16T22:09:06.244Z,99.90
2018-06-16T22:14:02.589Z,99.90
2018-06-16T22:16:30.886Z,99.90
2018-06-16T22:18:59.192Z,99.90
2018-06-16T22:21:27.544Z,99.90
2018-06-16T22:23:55.816Z,99.90
2018-06-16T22:26:24.092Z,99.90
2018-06-16T22:28:52.393Z,99.90
2018-06-16T22:31:20.713Z,99.90
2018-06-16T22:33:49.094Z,99.90
2018-06-16T22:36:17.656Z,99.90
2018-06-16T22:41:14.006Z,99.90
2018-06-16T22:43:42.308Z,99.90
2018-06-16T22:46:10.640Z,99.90
2018-06-16T22:48:38.939Z,99.90
2018-06-16T22:51:07.670Z,99.90
2018-06-16T22:53:35.930Z,99.90
2018-06-16T22:56:04.245Z,99.90
2018-06-16T22:58:32.540Z,99.90
2018-06-16T23:01:00.831Z,99.90
2018-06-16T23:03:29.112Z,99.90
2018-06-16T23:05:57.391Z,99.90
2018-06-16T23:08:25.712Z,99.90
2018-06-16T23:10:54.018Z,99.90
2018-06-16T23:15:50.378Z,99.90
2018-06-16T23:18:18.664Z,99.90
2018-06-16T23:20:46.944Z,99.90
2018-06-16T23:23:15.340Z,99.90
2018-06-16T23:25:43.628Z,99.90
2018-06-16T23:28:12.792Z,99.90
2018-06-16T23:30:41.132Z,99.90
2018-06-16T23:33:09.441Z,99.90
2018-06-16T23:35:37.750Z,99.90
2018-06-16T23:38:06.063Z,99.90
2018-06-16T23:40:34.478Z,99.90
2018-06-16T23:43:02.774Z,99.90
2018-06-16T23:45:31.168Z,99.90
2018-06-16T23:47:59.493Z,99.90
2018-06-16T23:50:27.796Z,99.90
2018-06-16T23:52:56.064Z,99.90
2018-06-16T23:55:24.484Z,99.90
2018-06-16T23:57:52.816Z,99.90
